sensor_id;sensor_type;location;lat;lon;timestamp;pressure;altitude;pressure_sealevel;temperature;humidity
9521;BME280;4798;41.574;23.734;2023-08-07T00:02:01;94611.34;;;23.07;63.00
9521;BME280;4798;41.574;23.734;2023-08-07T00:04:32;94614.84;;;22.82;62.24
9521;BME280;4798;41.574;23.734;2023-08-07T00:07:00;94619.47;;;22.58;62.71
9521;BME280;4798;41.574;23.734;2023-08-07T00:09:29;94624.31;;;22.49;63.41
9521;BME280;4798;41.574;23.734;2023-08-07T00:11:57;94613.47;;;22.68;63.76
9521;BME280;4798;41.574;23.734;2023-08-07T00:14:26;94621.13;;;22.89;62.89
9521;BME280;4798;41.574;23.734;2023-08-07T00:16:54;94615.13;;;23.03;62.90
9521;BME280;4798;41.574;23.734;2023-08-07T00:19:22;94614.81;;;23.08;62.52
9521;BME280;4798;41.574;23.734;2023-08-07T00:21:52;94621.78;;;23.35;62.60
9521;BME280;4798;41.574;23.734;2023-08-07T00:24:21;94627.13;;;23.31;60.94
9521;BME280;4798;41.574;23.734;2023-08-07T00:26:49;94619.69;;;23.51;61.64
9521;BME280;4798;41.574;23.734;2023-08-07T00:29:17;94622.53;;;23.06;61.44
9521;BME280;4798;41.574;23.734;2023-08-07T00:31:45;94639.69;;;22.68;62.93
9521;BME280;4798;41.574;23.734;2023-08-07T00:34:14;94637.75;;;22.91;64.11
9521;BME280;4798;41.574;23.734;2023-08-07T00:36:42;94636.41;;;23.04;63.62
9521;BME280;4798;41.574;23.734;2023-08-07T00:39:12;94627.41;;;22.97;62.25
9521;BME280;4798;41.574;23.734;2023-08-07T00:41:40;94625.50;;;22.52;62.95
9521;BME280;4798;41.574;23.734;2023-08-07T00:44:08;94625.94;;;22.31;63.60
9521;BME280;4798;41.574;23.734;2023-08-07T00:46:37;94631.69;;;22.52;65.13
9521;BME280;4798;41.574;23.734;2023-08-07T00:49:07;94637.06;;;22.49;64.57
9521;BME280;4798;41.574;23.734;2023-08-07T00:51:37;94593.59;;;22.12;64.45
9521;BME280;4798;41.574;23.734;2023-08-07T00:54:07;94639.31;;;22.47;63.92
9521;BME280;4798;41.574;23.734;2023-08-07T00:56:39;94637.06;;;22.49;64.51
9521;BME280;4798;41.574;23.734;2023-08-07T00:59:08;94642.00;;;22.66;63.66
9521;BME280;4798;41.574;23.734;2023-08-07T01:01:36;94641.63;;;22.67;63.84
9521;BME280;4798;41.574;23.734;2023-08-07T01:04:05;94634.78;;;22.51;64.96
9521;BME280;4798;41.574;23.734;2023-08-07T01:06:33;94640.28;;;22.58;64.68
9521;BME280;4798;41.574;23.734;2023-08-07T01:09:01;94640.97;;;22.51;63.77
9521;BME280;4798;41.574;23.734;2023-08-07T01:11:35;94609.66;;;22.05;63.90
9521;BME280;4798;41.574;23.734;2023-08-07T01:14:16;94641.59;;;22.45;64.04
9521;BME280;4798;41.574;23.734;2023-08-07T01:16:50;94646.22;;;22.44;65.04
9521;BME280;4798;41.574;23.734;2023-08-07T01:19:24;94645.88;;;22.46;64.56
9521;BME280;4798;41.574;23.734;2023-08-07T01:22:05;94650.41;;;22.42;64.66
9521;BME280;4798;41.574;23.734;2023-08-07T01:24:34;94652.41;;;22.45;64.84
9521;BME280;4798;41.574;23.734;2023-08-07T01:27:14;94651.56;;;22.41;64.25
9521;BME280;4798;41.574;23.734;2023-08-07T01:29:51;94637.66;;;21.97;64.15
9521;BME280;4798;41.574;23.734;2023-08-07T01:32:28;94656.00;;;21.88;64.89
9521;BME280;4798;41.574;23.734;2023-08-07T01:34:59;94668.78;;;21.56;65.47
9521;BME280;4798;41.574;23.734;2023-08-07T01:37:34;94649.72;;;21.65;66.69
9521;BME280;4798;41.574;23.734;2023-08-07T01:40:04;94657.38;;;21.82;65.41
9521;BME280;4798;41.574;23.734;2023-08-07T01:42:34;94664.19;;;21.76;64.53
9521;BME280;4798;41.574;23.734;2023-08-07T01:45:04;94670.59;;;21.68;65.46
9521;BME280;4798;41.574;23.734;2023-08-07T01:47:32;94660.94;;;21.67;66.09
9521;BME280;4798;41.574;23.734;2023-08-07T01:50:02;94661.56;;;21.79;66.33
9521;BME280;4798;41.574;23.734;2023-08-07T01:52:32;94660.94;;;22.05;64.92
9521;BME280;4798;41.574;23.734;2023-08-07T01:55:00;94669.00;;;22.24;65.10
9521;BME280;4798;41.574;23.734;2023-08-07T01:57:29;94671.56;;;22.17;64.57
9521;BME280;4798;41.574;23.734;2023-08-07T01:59:58;94670.75;;;21.94;65.42
9521;BME280;4798;41.574;23.734;2023-08-07T02:02:26;94672.56;;;22.09;65.35
9521;BME280;4798;41.574;23.734;2023-08-07T02:04:54;94677.41;;;21.62;64.92
9521;BME280;4798;41.574;23.734;2023-08-07T02:07:23;94684.41;;;21.66;65.59
9521;BME280;4798;41.574;23.734;2023-08-07T02:09:52;94678.88;;;21.78;66.56
9521;BME280;4798;41.574;23.734;2023-08-07T02:12:21;94684.03;;;22.02;66.51
9521;BME280;4798;41.574;23.734;2023-08-07T02:14:49;94689.00;;;22.00;63.22
9521;BME280;4798;41.574;23.734;2023-08-07T02:17:17;94704.13;;;21.01;66.99
9521;BME280;4798;41.574;23.734;2023-08-07T02:19:46;94708.06;;;21.38;68.50
9521;BME280;4798;41.574;23.734;2023-08-07T02:22:14;94701.06;;;21.87;67.38
9521;BME280;4798;41.574;23.734;2023-08-07T02:24:42;94711.44;;;21.85;67.36
9521;BME280;4798;41.574;23.734;2023-08-07T02:27:12;94705.56;;;21.64;67.94
9521;BME280;4798;41.574;23.734;2023-08-07T02:29:40;94702.63;;;21.53;66.29
9521;BME280;4798;41.574;23.734;2023-08-07T02:32:09;94709.06;;;21.30;66.20
9521;BME280;4798;41.574;23.734;2023-08-07T02:34:37;94703.88;;;21.06;66.92
9521;BME280;4798;41.574;23.734;2023-08-07T02:37:06;94710.91;;;20.95;67.13
9521;BME280;4798;41.574;23.734;2023-08-07T02:39:34;94714.38;;;21.11;65.92
9521;BME280;4798;41.574;23.734;2023-08-07T02:42:02;94702.47;;;21.27;66.81
9521;BME280;4798;41.574;23.734;2023-08-07T02:44:32;94709.75;;;21.42;66.31
9521;BME280;4798;41.574;23.734;2023-08-07T02:47:00;94706.75;;;21.47;66.15
9521;BME280;4798;41.574;23.734;2023-08-07T02:49:29;94713.56;;;21.41;64.76
9521;BME280;4798;41.574;23.734;2023-08-07T02:51:57;94713.25;;;21.62;65.24
9521;BME280;4798;41.574;23.734;2023-08-07T02:54:26;94717.16;;;21.30;64.40
9521;BME280;4798;41.574;23.734;2023-08-07T02:56:54;94717.81;;;21.42;65.37
9521;BME280;4798;41.574;23.734;2023-08-07T02:59:23;94715.34;;;21.53;65.08
9521;BME280;4798;41.574;23.734;2023-08-07T03:01:52;94721.75;;;21.64;64.54
9521;BME280;4798;41.574;23.734;2023-08-07T03:04:21;94724.72;;;21.59;64.42
9521;BME280;4798;41.574;23.734;2023-08-07T03:06:49;94733.78;;;21.86;65.19
9521;BME280;4798;41.574;23.734;2023-08-07T03:09:18;94738.91;;;20.74;65.40
9521;BME280;4798;41.574;23.734;2023-08-07T03:11:46;94744.63;;;20.30;67.94
9521;BME280;4798;41.574;23.734;2023-08-07T03:14:15;94745.56;;;20.65;69.79
9521;BME280;4798;41.574;23.734;2023-08-07T03:16:44;94741.16;;;21.04;68.63
9521;BME280;4798;41.574;23.734;2023-08-07T03:19:14;94747.84;;;21.25;68.93
9521;BME280;4798;41.574;23.734;2023-08-07T03:21:42;94753.63;;;21.43;67.09
9521;BME280;4798;41.574;23.734;2023-08-07T03:24:11;94750.56;;;21.60;67.47
9521;BME280;4798;41.574;23.734;2023-08-07T03:26:40;94744.53;;;21.67;66.48
9521;BME280;4798;41.574;23.734;2023-08-07T03:29:08;94748.53;;;20.91;68.65
9521;BME280;4798;41.574;23.734;2023-08-07T03:31:36;94755.16;;;20.35;71.83
9521;BME280;4798;41.574;23.734;2023-08-07T03:34:05;94757.22;;;20.69;72.66
9521;BME280;4798;41.574;23.734;2023-08-07T03:36:34;94752.03;;;21.07;71.81
9521;BME280;4798;41.574;23.734;2023-08-07T03:39:03;94757.13;;;21.43;70.76
9521;BME280;4798;41.574;23.734;2023-08-07T03:41:31;94762.53;;;20.81;71.48
9521;BME280;4798;41.574;23.734;2023-08-07T03:43:59;94757.44;;;21.07;72.15
9521;BME280;4798;41.574;23.734;2023-08-07T03:46:28;94762.63;;;21.31;71.24
9521;BME280;4798;41.574;23.734;2023-08-07T03:48:56;94758.03;;;20.42;73.42
9521;BME280;4798;41.574;23.734;2023-08-07T03:51:24;94762.59;;;20.69;74.70
9521;BME280;4798;41.574;23.734;2023-08-07T03:53:54;94764.88;;;20.98;73.39
9521;BME280;4798;41.574;23.734;2023-08-07T03:56:23;94774.41;;;20.80;74.71
9521;BME280;4798;41.574;23.734;2023-08-07T03:58:51;94773.97;;;20.62;74.91
9521;BME280;4798;41.574;23.734;2023-08-07T04:01:19;94770.69;;;20.69;74.29
9521;BME280;4798;41.574;23.734;2023-08-07T04:03:48;94716.44;;;20.23;76.29
9521;BME280;4798;41.574;23.734;2023-08-07T04:06:16;94770.09;;;20.91;75.90
9521;BME280;4798;41.574;23.734;2023-08-07T04:08:45;94778.47;;;20.58;74.81
9521;BME280;4798;41.574;23.734;2023-08-07T04:11:15;94780.00;;;21.18;74.57
9521;BME280;4798;41.574;23.734;2023-08-07T04:13:44;94773.91;;;21.52;71.76
9521;BME280;4798;41.574;23.734;2023-08-07T04:16:12;94759.16;;;21.15;73.56
9521;BME280;4798;41.574;23.734;2023-08-07T04:18:40;94770.19;;;20.95;75.60
9521;BME280;4798;41.574;23.734;2023-08-07T04:21:09;94758.09;;;21.04;75.02
9521;BME280;4798;41.574;23.734;2023-08-07T04:23:37;94761.34;;;21.10;73.94
9521;BME280;4798;41.574;23.734;2023-08-07T04:26:09;94761.94;;;21.19;72.60
9521;BME280;4798;41.574;23.734;2023-08-07T04:28:38;94775.41;;;21.34;71.13
9521;BME280;4798;41.574;23.734;2023-08-07T04:31:07;94776.94;;;21.51;71.33
9521;BME280;4798;41.574;23.734;2023-08-07T04:33:35;94755.13;;;21.75;70.37
9521;BME280;4798;41.574;23.734;2023-08-07T04:36:04;94762.94;;;21.80;67.71
9521;BME280;4798;41.574;23.734;2023-08-07T04:38:33;94760.00;;;21.85;68.11
9521;BME280;4798;41.574;23.734;2023-08-07T04:41:01;94746.25;;;21.90;68.69
9521;BME280;4798;41.574;23.734;2023-08-07T04:43:30;94771.09;;;22.19;68.53
9521;BME280;4798;41.574;23.734;2023-08-07T04:46:00;94767.06;;;22.28;66.74
9521;BME280;4798;41.574;23.734;2023-08-07T04:48:29;94768.88;;;22.43;67.03
9521;BME280;4798;41.574;23.734;2023-08-07T04:50:58;94769.75;;;22.66;66.37
9521;BME280;4798;41.574;23.734;2023-08-07T04:53:26;94764.25;;;22.63;64.96
9521;BME280;4798;41.574;23.734;2023-08-07T04:55:54;94766.91;;;22.21;63.48
9521;BME280;4798;41.574;23.734;2023-08-07T04:58:23;94770.59;;;22.51;65.49
9521;BME280;4798;41.574;23.734;2023-08-07T05:00:55;94753.34;;;21.64;63.58
9521;BME280;4798;41.574;23.734;2023-08-07T05:03:26;94793.38;;;21.81;65.48
9521;BME280;4798;41.574;23.734;2023-08-07T05:05:58;94792.66;;;21.65;72.06
9521;BME280;4798;41.574;23.734;2023-08-07T05:08:27;94793.66;;;20.94;79.27
9521;BME280;4798;41.574;23.734;2023-08-07T05:10:55;94790.03;;;20.59;86.81
9521;BME280;4798;41.574;23.734;2023-08-07T05:13:24;94798.13;;;20.31;87.89
9521;BME280;4798;41.574;23.734;2023-08-07T05:15:52;94799.41;;;20.09;89.23
9521;BME280;4798;41.574;23.734;2023-08-07T05:18:20;94793.44;;;20.16;86.41
9521;BME280;4798;41.574;23.734;2023-08-07T05:20:50;94795.31;;;19.88;89.42
9521;BME280;4798;41.574;23.734;2023-08-07T05:23:18;94795.22;;;20.52;85.21
9521;BME280;4798;41.574;23.734;2023-08-07T05:25:47;94789.81;;;20.79;84.12
9521;BME280;4798;41.574;23.734;2023-08-07T05:28:15;94790.88;;;21.37;78.95
9521;BME280;4798;41.574;23.734;2023-08-07T05:30:44;94787.50;;;21.75;76.04
9521;BME280;4798;41.574;23.734;2023-08-07T05:33:13;94795.31;;;21.96;74.47
9521;BME280;4798;41.574;23.734;2023-08-07T05:35:42;94790.56;;;22.08;73.07
9521;BME280;4798;41.574;23.734;2023-08-07T05:38:12;94789.50;;;22.13;72.84
9521;BME280;4798;41.574;23.734;2023-08-07T05:40:40;94796.97;;;21.50;73.51
9521;BME280;4798;41.574;23.734;2023-08-07T05:43:08;94800.00;;;21.83;74.83
9521;BME280;4798;41.574;23.734;2023-08-07T05:45:38;94799.13;;;21.95;73.20
9521;BME280;4798;41.574;23.734;2023-08-07T05:48:06;94798.34;;;21.79;71.98
9521;BME280;4798;41.574;23.734;2023-08-07T05:50:36;94797.16;;;22.49;71.86
9521;BME280;4798;41.574;23.734;2023-08-07T05:53:04;94803.53;;;22.60;68.81
9521;BME280;4798;41.574;23.734;2023-08-07T05:55:34;94808.09;;;22.37;68.83
9521;BME280;4798;41.574;23.734;2023-08-07T05:58:02;94810.81;;;22.18;70.76
9521;BME280;4798;41.574;23.734;2023-08-07T06:00:31;94808.63;;;21.89;71.03
9521;BME280;4798;41.574;23.734;2023-08-07T06:02:59;94800.72;;;22.53;69.82
9521;BME280;4798;41.574;23.734;2023-08-07T06:05:28;94801.22;;;22.40;67.15
9521;BME280;4798;41.574;23.734;2023-08-07T06:07:56;94802.91;;;22.86;67.38
9521;BME280;4798;41.574;23.734;2023-08-07T06:10:25;94804.72;;;23.24;67.84
9521;BME280;4798;41.574;23.734;2023-08-07T06:12:55;94813.00;;;23.83;64.59
9521;BME280;4798;41.574;23.734;2023-08-07T06:15:23;94813.13;;;23.90;64.25
9521;BME280;4798;41.574;23.734;2023-08-07T06:17:51;94814.81;;;24.02;63.44
9521;BME280;4798;41.574;23.734;2023-08-07T06:20:20;94811.16;;;24.47;61.59
9521;BME280;4798;41.574;23.734;2023-08-07T06:22:48;94822.94;;;24.95;60.66
9521;BME280;4798;41.574;23.734;2023-08-07T06:25:16;94823.38;;;24.67;59.47
9521;BME280;4798;41.574;23.734;2023-08-07T06:27:46;94820.19;;;25.32;59.15
9521;BME280;4798;41.574;23.734;2023-08-07T06:30:16;94823.09;;;25.49;57.30
9521;BME280;4798;41.574;23.734;2023-08-07T06:32:44;94814.06;;;25.85;57.06
9521;BME280;4798;41.574;23.734;2023-08-07T06:35:12;94810.69;;;26.06;56.61
9521;BME280;4798;41.574;23.734;2023-08-07T06:37:41;94809.28;;;26.30;55.33
9521;BME280;4798;41.574;23.734;2023-08-07T06:40:10;94812.13;;;26.58;54.48
9521;BME280;4798;41.574;23.734;2023-08-07T06:42:38;94812.25;;;26.97;52.40
9521;BME280;4798;41.574;23.734;2023-08-07T06:45:07;94759.97;;;26.24;51.02
9521;BME280;4798;41.574;23.734;2023-08-07T06:47:37;94813.88;;;27.19;51.17
9521;BME280;4798;41.574;23.734;2023-08-07T06:50:06;94809.25;;;27.69;51.34
9521;BME280;4798;41.574;23.734;2023-08-07T06:52:34;94809.53;;;26.93;48.37
9521;BME280;4798;41.574;23.734;2023-08-07T06:55:03;94811.19;;;27.44;50.13
9521;BME280;4798;41.574;23.734;2023-08-07T06:57:32;94806.50;;;27.76;47.62
9521;BME280;4798;41.574;23.734;2023-08-07T07:00:00;94804.50;;;28.22;46.43
9521;BME280;4798;41.574;23.734;2023-08-07T07:02:29;94799.75;;;28.44;46.15
9521;BME280;4798;41.574;23.734;2023-08-07T07:04:59;94816.53;;;28.28;46.42
9521;BME280;4798;41.574;23.734;2023-08-07T07:07:27;94801.31;;;28.42;45.33
9521;BME280;4798;41.574;23.734;2023-08-07T07:09:55;94803.97;;;28.73;45.76
9521;BME280;4798;41.574;23.734;2023-08-07T07:12:24;94812.13;;;28.73;44.28
9521;BME280;4798;41.574;23.734;2023-08-07T07:14:53;94811.38;;;28.69;44.26
9521;BME280;4798;41.574;23.734;2023-08-07T07:17:21;94811.56;;;29.07;44.12
9521;BME280;4798;41.574;23.734;2023-08-07T07:19:50;94806.28;;;28.78;45.04
9521;BME280;4798;41.574;23.734;2023-08-07T07:22:19;94810.03;;;29.02;44.51
9521;BME280;4798;41.574;23.734;2023-08-07T07:24:48;94804.00;;;29.83;44.13
9521;BME280;4798;41.574;23.734;2023-08-07T07:27:16;94809.50;;;29.76;41.15
9521;BME280;4798;41.574;23.734;2023-08-07T07:29:48;94814.94;;;29.83;41.16
9521;BME280;4798;41.574;23.734;2023-08-07T07:32:16;94794.56;;;30.29;41.02
9521;BME280;4798;41.574;23.734;2023-08-07T07:34:44;94806.41;;;30.56;41.22
9521;BME280;4798;41.574;23.734;2023-08-07T07:37:13;94784.81;;;30.95;40.33
9521;BME280;4798;41.574;23.734;2023-08-07T07:39:45;94801.91;;;30.39;38.70
9521;BME280;4798;41.574;23.734;2023-08-07T07:42:13;94806.34;;;30.93;37.81
9521;BME280;4798;41.574;23.734;2023-08-07T07:44:41;94801.25;;;30.24;37.13
9521;BME280;4798;41.574;23.734;2023-08-07T07:47:11;94808.16;;;30.39;36.87
9521;BME280;4798;41.574;23.734;2023-08-07T07:49:45;94804.44;;;30.56;37.15
9521;BME280;4798;41.574;23.734;2023-08-07T07:52:13;94799.34;;;30.58;38.27
9521;BME280;4798;41.574;23.734;2023-08-07T07:54:41;94794.31;;;30.53;37.26
9521;BME280;4798;41.574;23.734;2023-08-07T07:57:11;94799.13;;;31.06;37.47
9521;BME280;4798;41.574;23.734;2023-08-07T07:59:39;94786.38;;;31.50;37.30
9521;BME280;4798;41.574;23.734;2023-08-07T08:02:08;94785.66;;;32.15;35.94
9521;BME280;4798;41.574;23.734;2023-08-07T08:04:36;94774.88;;;31.81;35.53
9521;BME280;4798;41.574;23.734;2023-08-07T08:07:05;94787.16;;;32.39;34.47
9521;BME280;4798;41.574;23.734;2023-08-07T08:09:34;94776.53;;;31.75;35.59
9521;BME280;4798;41.574;23.734;2023-08-07T08:12:02;94779.69;;;32.79;35.25
9521;BME280;4798;41.574;23.734;2023-08-07T08:14:32;94767.47;;;33.00;35.76
9521;BME280;4798;41.574;23.734;2023-08-07T08:17:20;94783.16;;;33.55;35.00
9521;BME280;4798;41.574;23.734;2023-08-07T08:19:49;94791.25;;;32.71;34.14
9521;BME280;4798;41.574;23.734;2023-08-07T08:22:18;94779.69;;;31.97;35.73
9521;BME280;4798;41.574;23.734;2023-08-07T08:24:46;94775.34;;;31.53;34.83
9521;BME280;4798;41.574;23.734;2023-08-07T08:27:15;94762.31;;;31.61;34.83
9521;BME280;4798;41.574;23.734;2023-08-07T08:29:46;94771.09;;;33.49;33.44
9521;BME280;4798;41.574;23.734;2023-08-07T08:32:14;94768.75;;;33.31;34.76
9521;BME280;4798;41.574;23.734;2023-08-07T08:34:42;94767.06;;;32.66;33.18
9521;BME280;4798;41.574;23.734;2023-08-07T08:37:11;94761.34;;;33.12;32.48
9521;BME280;4798;41.574;23.734;2023-08-07T08:39:39;94761.28;;;32.40;33.02
9521;BME280;4798;41.574;23.734;2023-08-07T08:42:10;94763.44;;;33.24;35.37
9521;BME280;4798;41.574;23.734;2023-08-07T08:44:39;94764.47;;;33.78;33.98
9521;BME280;4798;41.574;23.734;2023-08-07T08:47:10;94769.91;;;33.82;32.71
9521;BME280;4798;41.574;23.734;2023-08-07T08:49:44;94760.63;;;33.44;31.47
9521;BME280;4798;41.574;23.734;2023-08-07T08:52:14;94757.59;;;34.03;33.44
9521;BME280;4798;41.574;23.734;2023-08-07T08:54:44;94705.66;;;33.44;32.89
9521;BME280;4798;41.574;23.734;2023-08-07T08:57:12;94752.03;;;33.58;33.37
9521;BME280;4798;41.574;23.734;2023-08-07T08:59:41;94749.34;;;33.86;31.52
9521;BME280;4798;41.574;23.734;2023-08-07T09:02:12;94746.31;;;34.42;31.54
9521;BME280;4798;41.574;23.734;2023-08-07T09:04:40;94746.94;;;33.40;32.92
9521;BME280;4798;41.574;23.734;2023-08-07T09:07:09;94738.53;;;33.79;32.40
9521;BME280;4798;41.574;23.734;2023-08-07T09:09:39;94731.88;;;33.93;32.40
9521;BME280;4798;41.574;23.734;2023-08-07T09:12:16;94733.91;;;33.44;29.56
9521;BME280;4798;41.574;23.734;2023-08-07T09:14:45;94736.28;;;33.10;29.53
9521;BME280;4798;41.574;23.734;2023-08-07T09:17:17;94734.53;;;33.00;30.23
9521;BME280;4798;41.574;23.734;2023-08-07T09:19:45;94721.22;;;34.40;28.70
9521;BME280;4798;41.574;23.734;2023-08-07T09:22:13;94721.09;;;35.23;28.17
9521;BME280;4798;41.574;23.734;2023-08-07T09:24:42;94716.03;;;35.34;29.18
9521;BME280;4798;41.574;23.734;2023-08-07T09:27:10;94714.63;;;35.17;28.12
9521;BME280;4798;41.574;23.734;2023-08-07T09:29:39;94716.13;;;34.38;29.89
9521;BME280;4798;41.574;23.734;2023-08-07T09:32:08;94708.25;;;34.53;29.37
9521;BME280;4798;41.574;23.734;2023-08-07T09:34:38;94724.06;;;35.53;28.19
9521;BME280;4798;41.574;23.734;2023-08-07T09:37:07;94717.81;;;36.21;29.07
9521;BME280;4798;41.574;23.734;2023-08-07T09:39:35;94705.09;;;36.67;28.66
9521;BME280;4798;41.574;23.734;2023-08-07T09:42:04;94713.97;;;36.41;27.86
9521;BME280;4798;41.574;23.734;2023-08-07T09:44:36;94713.06;;;35.16;27.20
9521;BME280;4798;41.574;23.734;2023-08-07T09:47:11;94710.75;;;35.27;29.09
9521;BME280;4798;41.574;23.734;2023-08-07T09:49:43;94704.91;;;35.84;28.08
9521;BME280;4798;41.574;23.734;2023-08-07T09:52:13;94700.16;;;35.38;27.20
9521;BME280;4798;41.574;23.734;2023-08-07T09:54:42;94695.44;;;35.26;28.81
9521;BME280;4798;41.574;23.734;2023-08-07T09:57:10;94701.03;;;35.94;27.99
9521;BME280;4798;41.574;23.734;2023-08-07T09:59:40;94696.78;;;35.68;26.41
9521;BME280;4798;41.574;23.734;2023-08-07T10:02:09;94693.88;;;35.25;26.78
9521;BME280;4798;41.574;23.734;2023-08-07T10:04:39;94682.44;;;35.26;27.12
9521;BME280;4798;41.574;23.734;2023-08-07T10:07:09;94690.56;;;35.89;28.81
9521;BME280;4798;41.574;23.734;2023-08-07T10:09:39;94681.88;;;35.31;28.68
9521;BME280;4798;41.574;23.734;2023-08-07T10:12:10;94686.16;;;34.69;27.31
9521;BME280;4798;41.574;23.734;2023-08-07T10:14:40;94668.19;;;35.28;26.57
9521;BME280;4798;41.574;23.734;2023-08-07T10:17:09;94679.75;;;36.16;27.51
9521;BME280;4798;41.574;23.734;2023-08-07T10:19:38;94673.72;;;37.14;26.14
9521;BME280;4798;41.574;23.734;2023-08-07T10:22:08;94684.00;;;36.82;26.47
9521;BME280;4798;41.574;23.734;2023-08-07T10:24:39;94684.09;;;35.70;26.06
9521;BME280;4798;41.574;23.734;2023-08-07T10:27:09;94671.03;;;35.62;25.32
9521;BME280;4798;41.574;23.734;2023-08-07T10:29:39;94668.00;;;36.68;25.58
9521;BME280;4798;41.574;23.734;2023-08-07T10:32:09;94661.00;;;36.55;25.94
9521;BME280;4798;41.574;23.734;2023-08-07T10:34:38;94666.81;;;38.03;27.08
9521;BME280;4798;41.574;23.734;2023-08-07T10:37:07;94646.03;;;37.63;25.21
9521;BME280;4798;41.574;23.734;2023-08-07T10:39:36;94667.56;;;37.10;24.96
9521;BME280;4798;41.574;23.734;2023-08-07T10:42:05;94656.81;;;37.70;26.22
9521;BME280;4798;41.574;23.734;2023-08-07T10:44:47;94658.34;;;37.71;26.77
9521;BME280;4798;41.574;23.734;2023-08-07T10:47:32;94656.00;;;37.51;25.26
9521;BME280;4798;41.574;23.734;2023-08-07T10:50:02;94617.75;;;38.22;24.54
9521;BME280;4798;41.574;23.734;2023-08-07T10:52:31;94654.50;;;37.68;23.68
9521;BME280;4798;41.574;23.734;2023-08-07T10:55:01;94658.63;;;36.44;24.59
9521;BME280;4798;41.574;23.734;2023-08-07T10:57:31;94641.38;;;36.53;26.34
9521;BME280;4798;41.574;23.734;2023-08-07T11:00:03;94650.78;;;37.04;24.54
9521;BME280;4798;41.574;23.734;2023-08-07T11:02:37;94640.84;;;36.23;24.80
9521;BME280;4798;41.574;23.734;2023-08-07T11:05:06;94641.50;;;36.27;25.22
9521;BME280;4798;41.574;23.734;2023-08-07T11:07:40;94609.94;;;37.57;25.10
9521;BME280;4798;41.574;23.734;2023-08-07T11:10:12;94629.63;;;38.04;24.37
9521;BME280;4798;41.574;23.734;2023-08-07T11:12:43;94625.91;;;36.55;24.46
9521;BME280;4798;41.574;23.734;2023-08-07T11:15:14;94623.56;;;37.33;26.26
9521;BME280;4798;41.574;23.734;2023-08-07T11:17:43;94623.28;;;38.31;24.15
9521;BME280;4798;41.574;23.734;2023-08-07T11:20:13;94616.56;;;38.65;23.31
9521;BME280;4798;41.574;23.734;2023-08-07T11:22:42;94614.56;;;39.07;23.14
9521;BME280;4798;41.574;23.734;2023-08-07T11:25:12;94621.25;;;38.92;22.77
9521;BME280;4798;41.574;23.734;2023-08-07T11:27:43;94595.63;;;39.06;23.03
9521;BME280;4798;41.574;23.734;2023-08-07T11:30:12;94606.03;;;39.20;23.19
9521;BME280;4798;41.574;23.734;2023-08-07T11:32:40;94609.81;;;39.55;21.29
9521;BME280;4798;41.574;23.734;2023-08-07T11:35:09;94607.94;;;39.05;23.63
9521;BME280;4798;41.574;23.734;2023-08-07T11:37:45;94599.75;;;38.27;25.16
9521;BME280;4798;41.574;23.734;2023-08-07T11:40:15;94595.16;;;38.33;24.26
9521;BME280;4798;41.574;23.734;2023-08-07T11:42:44;94597.44;;;38.85;24.24
9521;BME280;4798;41.574;23.734;2023-08-07T11:45:12;94592.41;;;38.14;24.23
9521;BME280;4798;41.574;23.734;2023-08-07T11:47:41;94583.00;;;38.30;23.41
9521;BME280;4798;41.574;23.734;2023-08-07T11:50:10;94586.66;;;37.09;22.96
9521;BME280;4798;41.574;23.734;2023-08-07T11:52:38;94589.13;;;37.16;23.30
9521;BME280;4798;41.574;23.734;2023-08-07T11:55:08;94584.56;;;37.40;23.40
9521;BME280;4798;41.574;23.734;2023-08-07T11:57:39;94586.66;;;38.36;23.18
9521;BME280;4798;41.574;23.734;2023-08-07T12:00:10;94577.91;;;38.80;21.56
9521;BME280;4798;41.574;23.734;2023-08-07T12:02:43;94557.06;;;39.41;21.73
9521;BME280;4798;41.574;23.734;2023-08-07T12:05:11;94566.88;;;40.04;21.41
9521;BME280;4798;41.574;23.734;2023-08-07T12:07:40;94571.91;;;38.81;23.64
9521;BME280;4798;41.574;23.734;2023-08-07T12:10:09;94575.81;;;38.56;22.05
9521;BME280;4798;41.574;23.734;2023-08-07T12:12:39;94571.19;;;38.62;23.23
9521;BME280;4798;41.574;23.734;2023-08-07T12:15:08;94574.91;;;37.90;23.55
9521;BME280;4798;41.574;23.734;2023-08-07T12:17:37;94575.63;;;37.18;24.35
9521;BME280;4798;41.574;23.734;2023-08-07T12:20:06;94566.00;;;36.83;25.09
9521;BME280;4798;41.574;23.734;2023-08-07T12:22:40;94562.47;;;36.43;23.90
9521;BME280;4798;41.574;23.734;2023-08-07T12:25:10;94565.41;;;36.88;25.37
9521;BME280;4798;41.574;23.734;2023-08-07T12:27:40;94569.13;;;36.94;23.89
9521;BME280;4798;41.574;23.734;2023-08-07T12:30:09;94560.31;;;37.53;24.01
9521;BME280;4798;41.574;23.734;2023-08-07T12:32:38;94569.63;;;36.62;24.72
9521;BME280;4798;41.574;23.734;2023-08-07T12:35:07;94492.44;;;36.18;24.77
9521;BME280;4798;41.574;23.734;2023-08-07T12:37:38;94567.69;;;36.80;24.72
9521;BME280;4798;41.574;23.734;2023-08-07T12:40:07;94569.69;;;36.80;24.35
9521;BME280;4798;41.574;23.734;2023-08-07T12:42:41;94556.47;;;36.84;24.93
9521;BME280;4798;41.574;23.734;2023-08-07T12:45:10;94567.56;;;36.93;24.42
9521;BME280;4798;41.574;23.734;2023-08-07T12:47:39;94563.78;;;37.27;24.91
9521;BME280;4798;41.574;23.734;2023-08-07T12:50:09;94554.59;;;37.21;24.51
9521;BME280;4798;41.574;23.734;2023-08-07T12:52:37;94561.31;;;36.53;24.28
9521;BME280;4798;41.574;23.734;2023-08-07T12:55:07;94568.59;;;36.38;23.62
9521;BME280;4798;41.574;23.734;2023-08-07T12:57:36;94565.78;;;36.59;23.79
9521;BME280;4798;41.574;23.734;2023-08-07T13:00:07;94564.31;;;36.85;23.89
9521;BME280;4798;41.574;23.734;2023-08-07T13:02:39;94567.66;;;36.71;22.70
9521;BME280;4798;41.574;23.734;2023-08-07T13:05:08;94558.75;;;37.16;23.26
9521;BME280;4798;41.574;23.734;2023-08-07T13:07:37;94571.75;;;36.98;23.05
9521;BME280;4798;41.574;23.734;2023-08-07T13:10:07;94571.53;;;36.92;22.92
9521;BME280;4798;41.574;23.734;2023-08-07T13:12:36;94502.06;;;36.05;23.93
9521;BME280;4798;41.574;23.734;2023-08-07T13:15:08;94503.63;;;36.15;22.94
9521;BME280;4798;41.574;23.734;2023-08-07T13:17:37;94560.53;;;35.78;23.28
9521;BME280;4798;41.574;23.734;2023-08-07T13:20:06;94563.25;;;35.69;24.00
9521;BME280;4798;41.574;23.734;2023-08-07T13:22:35;94556.94;;;35.00;23.68